sensor_id;sensor_type;location;lat;lon;timestamp;P1;durP1;ratioP1;P2;durP2;ratioP2
2041;SDS011;1026;51.460;7.252;2023-06-26T00:01:31;6.07;;;5.63;;
2041;SDS011;1026;51.460;7.252;2023-06-26T00:03:57;5.50;;;5.10;;
2041;SDS011;1026;51.460;7.252;2023-06-26T00:06:24;5.30;;;4.90;;
2041;SDS011;1026;51.460;7.252;2023-06-26T00:08:52;6.27;;;5.87;;
2041;SDS011;1026;51.460;7.252;2023-06-26T00:11:18;7.40;;;6.80;;
2041;SDS011;1026;51.460;7.252;2023-06-26T00:13:44;6.20;;;5.70;;
2041;SDS011;1026;51.460;7.252;2023-06-26T00:16:10;5.80;;;5.33;;
2041;SDS011;1026;51.460;7.252;2023-06-26T00:18:37;5.97;;;5.50;;
2041;SDS011;1026;51.460;7.252;2023-06-26T00:21:02;5.70;;;5.30;;
2041;SDS011;1026;51.460;7.252;2023-06-26T00:23:28;5.50;;;5.10;;
2041;SDS011;1026;51.460;7.252;2023-06-26T00:25:55;5.73;;;5.33;;
2041;SDS011;1026;51.460;7.252;2023-06-26T00:28:21;5.83;;;5.43;;
2041;SDS011;1026;51.460;7.252;2023-06-26T00:30:47;5.70;;;5.30;;
2041;SDS011;1026;51.460;7.252;2023-06-26T00:33:13;6.17;;;5.67;;
2041;SDS011;1026;51.460;7.252;2023-06-26T00:35:38;6.10;;;5.70;;
2041;SDS011;1026;51.460;7.252;2023-06-26T00:38:04;4.97;;;4.63;;
2041;SDS011;1026;51.460;7.252;2023-06-26T00:40:29;5.90;;;5.40;;
2041;SDS011;1026;51.460;7.252;2023-06-26T00:42:56;5.60;;;5.10;;
2041;SDS011;1026;51.460;7.252;2023-06-26T00:45:22;6.70;;;6.20;;
2041;SDS011;1026;51.460;7.252;2023-06-26T00:47:48;4.80;;;4.40;;
2041;SDS011;1026;51.460;7.252;2023-06-26T00:50:13;4.50;;;4.10;;
2041;SDS011;1026;51.460;7.252;2023-06-26T00:52:41;5.87;;;5.47;;
2041;SDS011;1026;51.460;7.252;2023-06-26T00:55:06;5.13;;;4.73;;
2041;SDS011;1026;51.460;7.252;2023-06-26T00:57:32;5.00;;;4.60;;
2041;SDS011;1026;51.460;7.252;2023-06-26T01:00:08;5.90;;;5.40;;
2041;SDS011;1026;51.460;7.252;2023-06-26T01:02:35;5.27;;;4.87;;
2041;SDS011;1026;51.460;7.252;2023-06-26T01:05:04;6.10;;;5.60;;
2041;SDS011;1026;51.460;7.252;2023-06-26T01:07:32;5.60;;;5.20;;
2041;SDS011;1026;51.460;7.252;2023-06-26T01:10:02;5.23;;;4.83;;
2041;SDS011;1026;51.460;7.252;2023-06-26T01:12:47;6.20;;;4.40;;
2041;SDS011;1026;51.460;7.252;2023-06-26T01:15:13;6.30;;;5.80;;
2041;SDS011;1026;51.460;7.252;2023-06-26T01:17:38;6.63;;;6.10;;
2041;SDS011;1026;51.460;7.252;2023-06-26T01:20:05;5.53;;;5.10;;
2041;SDS011;1026;51.460;7.252;2023-06-26T01:22:37;5.60;;;5.20;;
2041;SDS011;1026;51.460;7.252;2023-06-26T01:25:21;5.23;;;4.90;;
2041;SDS011;1026;51.460;7.252;2023-06-26T01:28:03;5.80;;;5.37;;
2041;SDS011;1026;51.460;7.252;2023-06-26T01:30:31;6.57;;;6.07;;
2041;SDS011;1026;51.460;7.252;2023-06-26T01:32:59;5.90;;;5.40;;
2041;SDS011;1026;51.460;7.252;2023-06-26T01:35:26;5.30;;;4.90;;
2041;SDS011;1026;51.460;7.252;2023-06-26T01:37:52;5.47;;;5.07;;
2041;SDS011;1026;51.460;7.252;2023-06-26T01:40:18;5.67;;;5.17;;
2041;SDS011;1026;51.460;7.252;2023-06-26T01:42:43;5.73;;;5.23;;
2041;SDS011;1026;51.460;7.252;2023-06-26T01:45:12;5.60;;;5.20;;
2041;SDS011;1026;51.460;7.252;2023-06-26T01:47:44;4.97;;;4.57;;
2041;SDS011;1026;51.460;7.252;2023-06-26T01:50:17;5.10;;;4.60;;
2041;SDS011;1026;51.460;7.252;2023-06-26T01:52:53;5.43;;;4.93;;
2041;SDS011;1026;51.460;7.252;2023-06-26T01:58:17;6.37;;;5.87;;
2041;SDS011;1026;51.460;7.252;2023-06-26T02:00:47;5.57;;;5.07;;
2041;SDS011;1026;51.460;7.252;2023-06-26T02:03:13;5.80;;;5.40;;
2041;SDS011;1026;51.460;7.252;2023-06-26T02:05:39;5.93;;;5.40;;
2041;SDS011;1026;51.460;7.252;2023-06-26T02:08:04;6.13;;;5.63;;
2041;SDS011;1026;51.460;7.252;2023-06-26T02:10:30;5.90;;;5.40;;
2041;SDS011;1026;51.460;7.252;2023-06-26T02:13:11;6.00;;;5.50;;
2041;SDS011;1026;51.460;7.252;2023-06-26T02:15:37;5.60;;;5.20;;
2041;SDS011;1026;51.460;7.252;2023-06-26T02:18:04;6.30;;;5.73;;
2041;SDS011;1026;51.460;7.252;2023-06-26T02:20:32;6.37;;;5.87;;
2041;SDS011;1026;51.460;7.252;2023-06-26T02:22:58;5.43;;;5.03;;
2041;SDS011;1026;51.460;7.252;2023-06-26T02:25:27;6.77;;;6.27;;
2041;SDS011;1026;51.460;7.252;2023-06-26T02:27:52;5.50;;;5.10;;
2041;SDS011;1026;51.460;7.252;2023-06-26T02:30:18;5.50;;;5.10;;
2041;SDS011;1026;51.460;7.252;2023-06-26T02:32:44;5.80;;;5.40;;
2041;SDS011;1026;51.460;7.252;2023-06-26T02:35:10;5.83;;;5.37;;
2041;SDS011;1026;51.460;7.252;2023-06-26T02:37:35;5.70;;;5.23;;
2041;SDS011;1026;51.460;7.252;2023-06-26T02:40:02;5.77;;;5.33;;
2041;SDS011;1026;51.460;7.252;2023-06-26T02:42:29;5.70;;;5.30;;
2041;SDS011;1026;51.460;7.252;2023-06-26T02:44:56;5.67;;;5.17;;
2041;SDS011;1026;51.460;7.252;2023-06-26T02:47:27;5.97;;;5.53;;
2041;SDS011;1026;51.460;7.252;2023-06-26T02:49:52;5.07;;;4.70;;
2041;SDS011;1026;51.460;7.252;2023-06-26T02:52:18;6.23;;;5.83;;
2041;SDS011;1026;51.460;7.252;2023-06-26T02:54:47;5.13;;;4.73;;
2041;SDS011;1026;51.460;7.252;2023-06-26T02:57:13;5.73;;;5.33;;
2041;SDS011;1026;51.460;7.252;2023-06-26T02:59:44;6.20;;;5.70;;
2041;SDS011;1026;51.460;7.252;2023-06-26T03:02:09;5.40;;;5.00;;
2041;SDS011;1026;51.460;7.252;2023-06-26T03:04:35;6.40;;;5.90;;
2041;SDS011;1026;51.460;7.252;2023-06-26T03:07:01;5.50;;;5.10;;
2041;SDS011;1026;51.460;7.252;2023-06-26T03:09:40;5.73;;;5.30;;
2041;SDS011;1026;51.460;7.252;2023-06-26T03:12:15;5.63;;;5.17;;
2041;SDS011;1026;51.460;7.252;2023-06-26T03:14:40;6.07;;;5.60;;
2041;SDS011;1026;51.460;7.252;2023-06-26T03:17:06;6.87;;;6.37;;
2041;SDS011;1026;51.460;7.252;2023-06-26T03:19:32;6.30;;;5.70;;
2041;SDS011;1026;51.460;7.252;2023-06-26T03:21:58;6.13;;;5.63;;
2041;SDS011;1026;51.460;7.252;2023-06-26T03:24:23;5.33;;;4.83;;
2041;SDS011;1026;51.460;7.252;2023-06-26T03:26:58;6.10;;;5.60;;
2041;SDS011;1026;51.460;7.252;2023-06-26T03:29:24;6.30;;;5.80;;
2041;SDS011;1026;51.460;7.252;2023-06-26T03:31:50;6.93;;;6.33;;
2041;SDS011;1026;51.460;7.252;2023-06-26T03:34:16;6.87;;;6.30;;
2041;SDS011;1026;51.460;7.252;2023-06-26T03:36:42;6.17;;;5.67;;
2041;SDS011;1026;51.460;7.252;2023-06-26T03:39:07;6.50;;;6.00;;
2041;SDS011;1026;51.460;7.252;2023-06-26T03:41:33;7.33;;;5.97;;
2041;SDS011;1026;51.460;7.252;2023-06-26T03:43:59;6.27;;;5.77;;
2041;SDS011;1026;51.460;7.252;2023-06-26T03:46:25;6.40;;;5.90;;
2041;SDS011;1026;51.460;7.252;2023-06-26T03:48:51;6.53;;;5.93;;
2041;SDS011;1026;51.460;7.252;2023-06-26T03:51:17;5.83;;;5.43;;
2041;SDS011;1026;51.460;7.252;2023-06-26T03:53:42;5.60;;;5.20;;
2041;SDS011;1026;51.460;7.252;2023-06-26T03:56:08;5.20;;;4.80;;
2041;SDS011;1026;51.460;7.252;2023-06-26T03:58:34;6.13;;;5.37;;
2041;SDS011;1026;51.460;7.252;2023-06-26T04:00:59;5.43;;;5.03;;
2041;SDS011;1026;51.460;7.252;2023-06-26T04:03:25;5.13;;;4.73;;
2041;SDS011;1026;51.460;7.252;2023-06-26T04:05:51;6.50;;;5.90;;
2041;SDS011;1026;51.460;7.252;2023-06-26T04:08:16;5.83;;;5.40;;
2041;SDS011;1026;51.460;7.252;2023-06-26T04:10:42;6.33;;;5.83;;
2041;SDS011;1026;51.460;7.252;2023-06-26T04:13:10;6.10;;;5.60;;
2041;SDS011;1026;51.460;7.252;2023-06-26T04:15:36;5.40;;;5.00;;
2041;SDS011;1026;51.460;7.252;2023-06-26T04:18:01;6.00;;;5.50;;
2041;SDS011;1026;51.460;7.252;2023-06-26T04:20:28;5.87;;;5.40;;
2041;SDS011;1026;51.460;7.252;2023-06-26T04:22:53;6.10;;;5.50;;
2041;SDS011;1026;51.460;7.252;2023-06-26T04:25:19;6.20;;;5.70;;
2041;SDS011;1026;51.460;7.252;2023-06-26T04:27:48;6.03;;;5.53;;
2041;SDS011;1026;51.460;7.252;2023-06-26T04:30:13;6.80;;;6.20;;
2041;SDS011;1026;51.460;7.252;2023-06-26T04:32:46;6.20;;;5.50;;
2041;SDS011;1026;51.460;7.252;2023-06-26T04:35:12;6.67;;;6.07;;
2041;SDS011;1026;51.460;7.252;2023-06-26T04:37:38;5.53;;;5.07;;
2041;SDS011;1026;51.460;7.252;2023-06-26T04:40:04;6.30;;;5.70;;
2041;SDS011;1026;51.460;7.252;2023-06-26T04:42:30;7.17;;;6.27;;
2041;SDS011;1026;51.460;7.252;2023-06-26T04:44:56;6.57;;;5.97;;
2041;SDS011;1026;51.460;7.252;2023-06-26T04:47:22;6.33;;;5.73;;
2041;SDS011;1026;51.460;7.252;2023-06-26T04:49:47;5.67;;;5.17;;
2041;SDS011;1026;51.460;7.252;2023-06-26T04:52:13;5.47;;;5.07;;
2041;SDS011;1026;51.460;7.252;2023-06-26T04:54:39;5.87;;;5.40;;
2041;SDS011;1026;51.460;7.252;2023-06-26T04:57:05;5.90;;;5.40;;
2041;SDS011;1026;51.460;7.252;2023-06-26T04:59:31;6.37;;;5.77;;
2041;SDS011;1026;51.460;7.252;2023-06-26T05:01:56;6.63;;;5.90;;
2041;SDS011;1026;51.460;7.252;2023-06-26T05:04:22;7.30;;;6.20;;
2041;SDS011;1026;51.460;7.252;2023-06-26T05:06:48;6.40;;;5.87;;
2041;SDS011;1026;51.460;7.252;2023-06-26T05:09:13;7.57;;;6.87;;
2041;SDS011;1026;51.460;7.252;2023-06-26T05:11:42;6.03;;;5.53;;
2041;SDS011;1026;51.460;7.252;2023-06-26T05:14:08;8.27;;;7.30;;
2041;SDS011;1026;51.460;7.252;2023-06-26T05:16:34;6.00;;;5.60;;
2041;SDS011;1026;51.460;7.252;2023-06-26T05:19:00;6.00;;;5.40;;
2041;SDS011;1026;51.460;7.252;2023-06-26T05:21:27;5.30;;;4.90;;
2041;SDS011;1026;51.460;7.252;2023-06-26T05:23:58;5.57;;;5.17;;
2041;SDS011;1026;51.460;7.252;2023-06-26T05:26:25;6.80;;;6.20;;
2041;SDS011;1026;51.460;7.252;2023-06-26T05:28:52;8.60;;;7.80;;
2041;SDS011;1026;51.460;7.252;2023-06-26T05:31:18;7.30;;;5.80;;
2041;SDS011;1026;51.460;7.252;2023-06-26T05:33:44;6.47;;;5.97;;
2041;SDS011;1026;51.460;7.252;2023-06-26T05:36:12;6.80;;;5.90;;
2041;SDS011;1026;51.460;7.252;2023-06-26T05:38:38;6.10;;;5.60;;
2041;SDS011;1026;51.460;7.252;2023-06-26T05:41:04;6.37;;;5.87;;
2041;SDS011;1026;51.460;7.252;2023-06-26T05:43:36;6.67;;;6.07;;
2041;SDS011;1026;51.460;7.252;2023-06-26T05:46:02;6.73;;;6.03;;
2041;SDS011;1026;51.460;7.252;2023-06-26T05:48:28;8.73;;;7.93;;
2041;SDS011;1026;51.460;7.252;2023-06-26T05:50:53;7.93;;;6.20;;
2041;SDS011;1026;51.460;7.252;2023-06-26T05:53:19;6.00;;;5.50;;
2041;SDS011;1026;51.460;7.252;2023-06-26T05:55:45;5.70;;;5.17;;
2041;SDS011;1026;51.460;7.252;2023-06-26T05:58:11;5.47;;;5.07;;
2041;SDS011;1026;51.460;7.252;2023-06-26T06:00:38;7.90;;;6.60;;
2041;SDS011;1026;51.460;7.252;2023-06-26T06:03:05;6.20;;;5.63;;
2041;SDS011;1026;51.460;7.252;2023-06-26T06:05:36;7.17;;;6.47;;
2041;SDS011;1026;51.460;7.252;2023-06-26T06:08:02;7.33;;;6.63;;
2041;SDS011;1026;51.460;7.252;2023-06-26T06:10:28;5.37;;;4.97;;
2041;SDS011;1026;51.460;7.252;2023-06-26T06:12:54;5.93;;;5.40;;
2041;SDS011;1026;51.460;7.252;2023-06-26T06:15:19;7.40;;;6.80;;
2041;SDS011;1026;51.460;7.252;2023-06-26T06:17:45;6.18;;;5.60;;
2041;SDS011;1026;51.460;7.252;2023-06-26T06:20:11;7.40;;;6.40;;
2041;SDS011;1026;51.460;7.252;2023-06-26T06:22:36;6.47;;;5.83;;
2041;SDS011;1026;51.460;7.252;2023-06-26T06:25:02;8.10;;;6.00;;
2041;SDS011;1026;51.460;7.252;2023-06-26T06:27:31;5.60;;;5.20;;
2041;SDS011;1026;51.460;7.252;2023-06-26T06:29:57;6.40;;;5.80;;
2041;SDS011;1026;51.460;7.252;2023-06-26T06:32:23;6.37;;;5.87;;
2041;SDS011;1026;51.460;7.252;2023-06-26T06:34:48;6.67;;;6.07;;
2041;SDS011;1026;51.460;7.252;2023-06-26T06:37:14;5.97;;;5.30;;
2041;SDS011;1026;51.460;7.252;2023-06-26T06:39:59;7.10;;;5.57;;
2041;SDS011;1026;51.460;7.252;2023-06-26T06:42:45;6.30;;;5.63;;
2041;SDS011;1026;51.460;7.252;2023-06-26T06:45:11;5.73;;;5.03;;
2041;SDS011;1026;51.460;7.252;2023-06-26T06:47:36;7.17;;;5.90;;
2041;SDS011;1026;51.460;7.252;2023-06-26T06:50:02;5.30;;;4.90;;
2041;SDS011;1026;51.460;7.252;2023-06-26T06:52:36;5.40;;;4.90;;
2041;SDS011;1026;51.460;7.252;2023-06-26T06:55:03;6.33;;;5.57;;
2041;SDS011;1026;51.460;7.252;2023-06-26T06:57:36;5.13;;;4.73;;
2041;SDS011;1026;51.460;7.252;2023-06-26T07:02:37;5.87;;;5.10;;
2041;SDS011;1026;51.460;7.252;2023-06-26T07:05:03;4.90;;;4.50;;
2041;SDS011;1026;51.460;7.252;2023-06-26T07:07:30;6.40;;;4.90;;
2041;SDS011;1026;51.460;7.252;2023-06-26T07:09:59;6.30;;;5.33;;
2041;SDS011;1026;51.460;7.252;2023-06-26T07:12:25;5.00;;;4.50;;
2041;SDS011;1026;51.460;7.252;2023-06-26T07:14:51;6.10;;;5.37;;
2041;SDS011;1026;51.460;7.252;2023-06-26T07:17:16;5.93;;;4.80;;
2041;SDS011;1026;51.460;7.252;2023-06-26T07:19:42;5.63;;;5.13;;
2041;SDS011;1026;51.460;7.252;2023-06-26T07:22:08;8.33;;;5.43;;
2041;SDS011;1026;51.460;7.252;2023-06-26T07:24:33;6.73;;;6.03;;
2041;SDS011;1026;51.460;7.252;2023-06-26T07:26:59;6.47;;;5.70;;
2041;SDS011;1026;51.460;7.252;2023-06-26T07:29:25;11.60;;;6.80;;
2041;SDS011;1026;51.460;7.252;2023-06-26T07:31:51;9.37;;;6.83;;
2041;SDS011;1026;51.460;7.252;2023-06-26T07:34:17;6.50;;;5.90;;
2041;SDS011;1026;51.460;7.252;2023-06-26T07:36:42;6.53;;;5.83;;
2041;SDS011;1026;51.460;7.252;2023-06-26T07:39:08;6.27;;;5.67;;
2041;SDS011;1026;51.460;7.252;2023-06-26T07:41:36;7.37;;;5.17;;
2041;SDS011;1026;51.460;7.252;2023-06-26T07:44:02;8.83;;;6.63;;
2041;SDS011;1026;51.460;7.252;2023-06-26T07:46:28;6.47;;;5.43;;
2041;SDS011;1026;51.460;7.252;2023-06-26T07:48:54;6.83;;;5.63;;
2041;SDS011;1026;51.460;7.252;2023-06-26T07:51:20;7.77;;;5.17;;
2041;SDS011;1026;51.460;7.252;2023-06-26T07:53:46;5.40;;;4.90;;
2041;SDS011;1026;51.460;7.252;2023-06-26T07:56:18;5.00;;;4.50;;
2041;SDS011;1026;51.460;7.252;2023-06-26T07:58:43;10.33;;;6.43;;
2041;SDS011;1026;51.460;7.252;2023-06-26T08:01:09;7.97;;;6.70;;
2041;SDS011;1026;51.460;7.252;2023-06-26T08:03:36;8.03;;;5.90;;
2041;SDS011;1026;51.460;7.252;2023-06-26T08:06:01;5.30;;;4.90;;
2041;SDS011;1026;51.460;7.252;2023-06-26T08:08:28;9.00;;;7.07;;
2041;SDS011;1026;51.460;7.252;2023-06-26T08:10:54;7.00;;;6.40;;
2041;SDS011;1026;51.460;7.252;2023-06-26T08:13:20;7.00;;;6.30;;
2041;SDS011;1026;51.460;7.252;2023-06-26T08:15:45;5.67;;;4.20;;
2041;SDS011;1026;51.460;7.252;2023-06-26T08:21:17;5.70;;;5.10;;
2041;SDS011;1026;51.460;7.252;2023-06-26T08:23:42;7.53;;;6.50;;
2041;SDS011;1026;51.460;7.252;2023-06-26T08:26:08;7.03;;;6.20;;
2041;SDS011;1026;51.460;7.252;2023-06-26T08:28:34;8.80;;;7.90;;
2041;SDS011;1026;51.460;7.252;2023-06-26T08:30:59;6.90;;;5.67;;
2041;SDS011;1026;51.460;7.252;2023-06-26T08:33:25;8.30;;;4.80;;
2041;SDS011;1026;51.460;7.252;2023-06-26T08:35:51;7.70;;;6.88;;
2041;SDS011;1026;51.460;7.252;2023-06-26T08:38:16;10.63;;;9.10;;
2041;SDS011;1026;51.460;7.252;2023-06-26T08:40:43;11.27;;;8.30;;
2041;SDS011;1026;51.460;7.252;2023-06-26T08:43:09;10.70;;;8.60;;
2041;SDS011;1026;51.460;7.252;2023-06-26T08:45:35;11.80;;;10.30;;
2041;SDS011;1026;51.460;7.252;2023-06-26T08:48:01;6.33;;;5.50;;
2041;SDS011;1026;51.460;7.252;2023-06-26T08:50:30;13.97;;;8.33;;
2041;SDS011;1026;51.460;7.252;2023-06-26T08:53:09;12.40;;;11.20;;
2041;SDS011;1026;51.460;7.252;2023-06-26T08:55:45;13.13;;;11.33;;
2041;SDS011;1026;51.460;7.252;2023-06-26T08:58:11;9.60;;;8.30;;
2041;SDS011;1026;51.460;7.252;2023-06-26T09:00:38;10.43;;;9.43;;
2041;SDS011;1026;51.460;7.252;2023-06-26T09:03:04;8.50;;;7.40;;
2041;SDS011;1026;51.460;7.252;2023-06-26T09:05:30;10.67;;;9.60;;
2041;SDS011;1026;51.460;7.252;2023-06-26T09:07:57;9.10;;;8.20;;
2041;SDS011;1026;51.460;7.252;2023-06-26T09:10:23;7.90;;;7.10;;
2041;SDS011;1026;51.460;7.252;2023-06-26T09:12:49;7.87;;;6.67;;
2041;SDS011;1026;51.460;7.252;2023-06-26T09:15:15;6.10;;;5.57;;
2041;SDS011;1026;51.460;7.252;2023-06-26T09:17:43;8.40;;;6.90;;
2041;SDS011;1026;51.460;7.252;2023-06-26T09:20:09;11.60;;;7.57;;
2041;SDS011;1026;51.460;7.252;2023-06-26T09:22:37;5.93;;;5.37;;
2041;SDS011;1026;51.460;7.252;2023-06-26T09:25:10;6.33;;;5.73;;
2041;SDS011;1026;51.460;7.252;2023-06-26T09:27:36;8.93;;;6.87;;
2041;SDS011;1026;51.460;7.252;2023-06-26T09:30:02;6.00;;;5.10;;
2041;SDS011;1026;51.460;7.252;2023-06-26T09:32:29;14.33;;;11.83;;
2041;SDS011;1026;51.460;7.252;2023-06-26T09:34:54;10.77;;;8.20;;
2041;SDS011;1026;51.460;7.252;2023-06-26T09:37:20;9.17;;;8.27;;
2041;SDS011;1026;51.460;7.252;2023-06-26T09:39:47;7.43;;;6.73;;
2041;SDS011;1026;51.460;7.252;2023-06-26T09:42:19;8.40;;;7.47;;
2041;SDS011;1026;51.460;7.252;2023-06-26T09:44:45;9.70;;;6.60;;
2041;SDS011;1026;51.460;7.252;2023-06-26T09:47:11;12.20;;;7.00;;
2041;SDS011;1026;51.460;7.252;2023-06-26T09:49:41;8.03;;;6.90;;
2041;SDS011;1026;51.460;7.252;2023-06-26T09:52:08;6.97;;;6.27;;
2041;SDS011;1026;51.460;7.252;2023-06-26T09:54:34;7.50;;;6.23;;
2041;SDS011;1026;51.460;7.252;2023-06-26T09:57:08;8.73;;;5.40;;
2041;SDS011;1026;51.460;7.252;2023-06-26T09:59:34;7.20;;;5.47;;
2041;SDS011;1026;51.460;7.252;2023-06-26T10:02:01;8.23;;;5.80;;
2041;SDS011;1026;51.460;7.252;2023-06-26T10:04:27;7.00;;;6.40;;
2041;SDS011;1026;51.460;7.252;2023-06-26T10:06:54;8.03;;;6.90;;
2041;SDS011;1026;51.460;7.252;2023-06-26T10:09:22;6.60;;;5.93;;
2041;SDS011;1026;51.460;7.252;2023-06-26T10:14:17;6.00;;;5.50;;
2041;SDS011;1026;51.460;7.252;2023-06-26T10:16:46;6.20;;;5.47;;
2041;SDS011;1026;51.460;7.252;2023-06-26T10:19:14;5.00;;;4.70;;
2041;SDS011;1026;51.460;7.252;2023-06-26T10:21:46;6.70;;;6.00;;
2041;SDS011;1026;51.460;7.252;2023-06-26T10:24:12;7.67;;;6.47;;
2041;SDS011;1026;51.460;7.252;2023-06-26T10:26:40;9.27;;;6.63;;
2041;SDS011;1026;51.460;7.252;2023-06-26T10:29:10;6.20;;;5.70;;
2041;SDS011;1026;51.460;7.252;2023-06-26T10:31:36;5.33;;;4.93;;
2041;SDS011;1026;51.460;7.252;2023-06-26T10:34:05;8.27;;;5.00;;
2041;SDS011;1026;51.460;7.252;2023-06-26T10:36:31;6.60;;;4.43;;
2041;SDS011;1026;51.460;7.252;2023-06-26T10:38:58;5.33;;;4.40;;
2041;SDS011;1026;51.460;7.252;2023-06-26T10:41:30;5.33;;;4.17;;
2041;SDS011;1026;51.460;7.252;2023-06-26T10:44:11;7.23;;;5.00;;
2041;SDS011;1026;51.460;7.252;2023-06-26T10:46:51;5.57;;;5.17;;
2041;SDS011;1026;51.460;7.252;2023-06-26T10:49:18;5.50;;;5.00;;
2041;SDS011;1026;51.460;7.252;2023-06-26T10:51:46;5.23;;;4.77;;
2041;SDS011;1026;51.460;7.252;2023-06-26T10:54:15;5.90;;;4.27;;
2041;SDS011;1026;51.460;7.252;2023-06-26T10:56:44;6.53;;;5.83;;
2041;SDS011;1026;51.460;7.252;2023-06-26T10:59:13;6.83;;;5.20;;
2041;SDS011;1026;51.460;7.252;2023-06-26T11:01:42;9.83;;;4.87;;
2041;SDS011;1026;51.460;7.252;2023-06-26T11:04:09;5.27;;;4.87;;
2041;SDS011;1026;51.460;7.252;2023-06-26T11:06:37;5.47;;;4.97;;
2041;SDS011;1026;51.460;7.252;2023-06-26T11:14:24;5.43;;;4.93;;
2041;SDS011;1026;51.460;7.252;2023-06-26T11:16:52;4.40;;;4.00;;
2041;SDS011;1026;51.460;7.252;2023-06-26T11:19:18;8.03;;;4.53;;
2041;SDS011;1026;51.460;7.252;2023-06-26T11:21:44;4.70;;;4.30;;
2041;SDS011;1026;51.460;7.252;2023-06-26T11:24:11;6.13;;;4.20;;
2041;SDS011;1026;51.460;7.252;2023-06-26T11:26:38;15.63;;;4.93;;
2041;SDS011;1026;51.460;7.252;2023-06-26T11:29:04;5.77;;;4.90;;
2041;SDS011;1026;51.460;7.252;2023-06-26T11:31:31;7.47;;;4.70;;
2041;SDS011;1026;51.460;7.252;2023-06-26T11:33:59;6.30;;;4.00;;
2041;SDS011;1026;51.460;7.252;2023-06-26T11:36:26;5.23;;;4.70;;
2041;SDS011;1026;51.460;7.252;2023-06-26T11:38:55;5.50;;;4.30;;
2041;SDS011;1026;51.460;7.252;2023-06-26T11:41:23;4.47;;;4.03;;
2041;SDS011;1026;51.460;7.252;2023-06-26T11:43:54;5.20;;;4.70;;
2041;SDS011;1026;51.460;7.252;2023-06-26T11:46:20;5.03;;;4.13;;
2041;SDS011;1026;51.460;7.252;2023-06-26T11:48:47;5.63;;;3.70;;
2041;SDS011;1026;51.460;7.252;2023-06-26T11:51:13;3.57;;;3.27;;
2041;SDS011;1026;51.460;7.252;2023-06-26T11:53:42;4.40;;;3.00;;
2041;SDS011;1026;51.460;7.252;2023-06-26T11:56:10;4.40;;;4.00;;
2041;SDS011;1026;51.460;7.252;2023-06-26T12:01:26;2.73;;;2.53;;
2041;SDS011;1026;51.460;7.252;2023-06-26T12:03:54;2.90;;;2.70;;
2041;SDS011;1026;51.460;7.252;2023-06-26T12:06:23;2.93;;;2.63;;
2041;SDS011;1026;51.460;7.252;2023-06-26T12:08:49;3.63;;;3.30;;
2041;SDS011;1026;51.460;7.252;2023-06-26T12:11:14;5.17;;;4.67;;
2041;SDS011;1026;51.460;7.252;2023-06-26T12:13:40;2.83;;;2.50;;
2041;SDS011;1026;51.460;7.252;2023-06-26T12:16:06;5.53;;;3.20;;
2041;SDS011;1026;51.460;7.252;2023-06-26T12:18:39;3.50;;;2.60;;
2041;SDS011;1026;51.460;7.252;2023-06-26T12:21:05;3.90;;;3.60;;
2041;SDS011;1026;51.460;7.252;2023-06-26T12:23:32;4.03;;;3.70;;
2041;SDS011;1026;51.460;7.252;2023-06-26T12:28:44;3.97;;;3.67;;
2041;SDS011;1026;51.460;7.252;2023-06-26T12:31:12;4.10;;;3.80;;
2041;SDS011;1026;51.460;7.252;2023-06-26T12:33:39;3.83;;;3.20;;
2041;SDS011;1026;51.460;7.252;2023-06-26T12:36:05;6.27;;;2.87;;
2041;SDS011;1026;51.460;7.252;2023-06-26T12:38:36;7.23;;;3.40;;
2041;SDS011;1026;51.460;7.252;2023-06-26T12:41:01;2.70;;;2.30;;
2041;SDS011;1026;51.460;7.252;2023-06-26T12:43:27;4.20;;;3.80;;
2041;SDS011;1026;51.460;7.252;2023-06-26T12:45:55;2.60;;;2.40;;
2041;SDS011;1026;51.460;7.252;2023-06-26T12:48:21;3.13;;;2.80;;
2041;SDS011;1026;51.460;7.252;2023-06-26T12:51:07;3.07;;;2.10;;
2041;SDS011;1026;51.460;7.252;2023-06-26T12:53:33;3.00;;;2.80;;
2041;SDS011;1026;51.460;7.252;2023-06-26T12:55:59;6.90;;;2.43;;
2041;SDS011;1026;51.460;7.252;2023-06-26T12:58:25;4.33;;;3.10;;
2041;SDS011;1026;51.460;7.252;2023-06-26T13:00:50;2.33;;;2.10;;
2041;SDS011;1026;51.460;7.252;2023-06-26T13:03:18;2.17;;;1.97;;
2041;SDS011;1026;51.460;7.252;2023-06-26T13:05:45;2.83;;;1.60;;
2041;SDS011;1026;51.460;7.252;2023-06-26T13:08:12;2.40;;;2.20;;
2041;SDS011;1026;51.460;7.252;2023-06-26T13:10:38;3.83;;;3.17;;
2041;SDS011;1026;51.460;7.252;2023-06-26T13:13:05;3.20;;;2.90;;
2041;SDS011;1026;51.460;7.252;2023-06-26T13:15:30;2.83;;;2.63;;
2041;SDS011;1026;51.460;7.252;2023-06-26T13:17:56;2.80;;;2.43;;
2041;SDS011;1026;51.460;7.252;2023-06-26T13:20:21;3.20;;;2.20;;
2041;SDS011;1026;51.460;7.252;2023-06-26T13:22:47;3.50;;;3.20;;
2041;SDS011;1026;51.460;7.252;2023-06-26T13:25:13;2.77;;;2.23;;
2041;SDS011;1026;51.460;7.252;2023-06-26T13:27:39;2.33;;;2.10;;
2041;SDS011;1026;51.460;7.252;2023-06-26T13:30:05;2.10;;;1.90;;
2041;SDS011;1026;51.460;7.252;2023-06-26T13:32:31;2.47;;;2.27;;
2041;SDS011;1026;51.460;7.252;2023-06-26T13:34:57;1.87;;;1.63;;
2041;SDS011;1026;51.460;7.252;2023-06-26T13:37:23;6.80;;;3.10;;
2041;SDS011;1026;51.460;7.252;2023-06-26T13:39:49;4.17;;;2.37;;
2041;SDS011;1026;51.460;7.252;2023-06-26T13:42:17;2.73;;;2.53;;
2041;SDS011;1026;51.460;7.252;2023-06-26T13:44:43;1.90;;;1.80;;
2041;SDS011;1026;51.460;7.252;2023-06-26T13:47:11;2.50;;;2.30;;
2041;SDS011;1026;51.460;7.252;2023-06-26T13:49:38;4.93;;;2.40;;
2041;SDS011;1026;51.460;7.252;2023-06-26T13:52:04;2.80;;;2.10;;
2041;SDS011;1026;51.460;7.252;2023-06-26T13:54:33;3.20;;;2.60;;
2041;SDS011;1026;51.460;7.252;2023-06-26T13:57:01;3.17;;;2.10;;
2041;SDS011;1026;51.460;7.252;2023-06-26T13:59:28;3.20;;;2.50;;
2041;SDS011;1026;51.460;7.252;2023-06-26T14:01:53;2.23;;;2.03;;
2041;SDS011;1026;51.460;7.252;2023-06-26T14:04:19;3.83;;;2.57;;
2041;SDS011;1026;51.460;7.252;2023-06-26T14:06:46;5.03;;;1.83;;
2041;SDS011;1026;51.460;7.252;2023-06-26T14:09:12;2.33;;;2.13;;
2041;SDS011;1026;51.460;7.252;2023-06-26T14:11:38;2.80;;;2.13;;
2041;SDS011;1026;51.460;7.252;2023-06-26T14:14:04;2.13;;;2.00;;
2041;SDS011;1026;51.460;7.252;2023-06-26T14:16:30;3.60;;;1.90;;
2041;SDS011;1026;51.460;7.252;2023-06-26T14:18:57;1.73;;;1.57;;
2041;SDS011;1026;51.460;7.252;2023-06-26T14:21:22;2.00;;;1.73;;
2041;SDS011;1026;51.460;7.252;2023-06-26T14:23:48;2.40;;;2.20;;
2041;SDS011;1026;51.460;7.252;2023-06-26T14:26:14;2.37;;;2.17;;
2041;SDS011;1026;51.460;7.252;2023-06-26T14:28:40;2.23;;;1.87;;
2041;SDS011;1026;51.460;7.252;2023-06-26T14:31:05;2.77;;;2.20;;
2041;SDS011;1026;51.460;7.252;2023-06-26T14:33:31;1.97;;;1.87;;
2041;SDS011;1026;51.460;7.252;2023-06-26T14:35:57;2.57;;;1.90;;
2041;SDS011;1026;51.460;7.252;2023-06-26T14:38:23;2.30;;;2.10;;
2041;SDS011;1026;51.460;7.252;2023-06-26T14:40:48;3.20;;;2.07;;
2041;SDS011;1026;51.460;7.252;2023-06-26T14:43:14;2.00;;;1.60;;
2041;SDS011;1026;51.460;7.252;2023-06-26T14:45:40;3.50;;;2.23;;
2041;SDS011;1026;51.460;7.252;2023-06-26T14:48:06;1.77;;;1.67;;
2041;SDS011;1026;51.460;7.252;2023-06-26T14:50:32;1.57;;;1.47;;
2041;SDS011;1026;51.460;7.252;2023-06-26T14:52:58;1.70;;;1.60;;
2041;SDS011;1026;51.460;7.252;2023-06-26T14:55:24;1.97;;;1.70;;
2041;SDS011;1026;51.460;7.252;2023-06-26T14:57:50;3.77;;;1.97;;
2041;SDS011;1026;51.460;7.252;2023-06-26T15:00:16;2.40;;;1.73;;
2041;SDS011;1026;51.460;7.252;2023-06-26T15:02:42;1.60;;;1.50;;
2041;SDS011;1026;51.460;7.252;2023-06-26T15:05:07;2.40;;;2.20;;
2041;SDS011;1026;51.460;7.252;2023-06-26T15:07:34;2.83;;;1.93;;
2041;SDS011;1026;51.460;7.252;2023-06-26T15:10:07;2.23;;;1.53;;
2041;SDS011;1026;51.460;7.252;2023-06-26T15:12:34;3.83;;;2.20;;
2041;SDS011;1026;51.460;7.252;2023-06-26T15:15:00;2.30;;;1.70;;
2041;SDS011;1026;51.460;7.252;2023-06-26T15:17:26;2.03;;;1.93;;
2041;SDS011;1026;51.460;7.252;2023-06-26T15:19:51;2.90;;;2.13;;
2041;SDS011;1026;51.460;7.252;2023-06-26T15:22:17;2.00;;;1.80;;
2041;SDS011;1026;51.460;7.252;2023-06-26T15:24:43;2.43;;;1.67;;
2041;SDS011;1026;51.460;7.252;2023-06-26T15:27:09;1.90;;;1.80;;
2041;SDS011;1026;51.460;7.252;2023-06-26T15:29:35;3.27;;;1.70;;
2041;SDS011;1026;51.460;7.252;2023-06-26T15:32:01;1.90;;;1.30;;
2041;SDS011;1026;51.460;7.252;2023-06-26T15:34:33;2.93;;;1.70;;
2041;SDS011;1026;51.460;7.252;2023-06-26T15:37:05;1.90;;;1.80;;